Cottonport, LA (71327)

10:54 AM CST on February 12, 2016 (GMT -0600)
Indian Bayou Rd | | Change Station
CLOSE
Current Station
Personal Weather Station
Location: Cottonport, LA
Elevation: 66 ft
Nearby Weather Stations

Elev 66 ft 30.98 °N, 92.06 °W | Updated 12 seconds ago

Overcast
Overcast
67.8 °F
Feels Like 67.8 °F
N
12.5
Wind Variable Wind from West
Gusts 12.5 mph

Today
High -- | Low -- °F
--% Chance of Precip.
Yesterday
High -- | Low -- °F
Precip. -- in
Pressure 30.29 in
Visibility 10.0 miles
Clouds Overcast 700 ft
Dew Point 65 °F
Humidity 91%
Rainfall 0.00 in
Snow Depth Not available.
6:52 AM 5:53 PM
Waxing Crescent, 22% visible
METAR KOPL 121635Z AUTO 27005KT 10SM OVC007 16/15 A3029 RMK AO2 T01630151
Pressure 30.29 in
Visibility 10.0 miles
Clouds Overcast 700 ft
Dew Point 65 °F
Humidity 91%
Rainfall 0.00 in
Snow Depth Not available.
6:52 AM 5:53 PM
Waxing Crescent, 22% visible
METAR KOPL 121635Z AUTO 27005KT 10SM OVC007 16/15 A3029 RMK AO2 T01630151

10-Day Weather Forecast

Almanac

Astronomy

Feb. 12, 2016 Rise Set
Actual Time
Civil Twilight
Nautical Twilight
Astronomical Twilight
Moon
Length of Visible Light
Length of Day
Tomorrow will be .
, % of the Moon is Illuminated

Today's Extremes

State Highs State Lows

Community

WunderPhotos

Upload Photos

1,892,354 photos uploaded!

WunderBlog® & News

Nearby

Air Quality

  Air Quality AQ Index Pollutant
Not available.

Snow Depth

Station Depth Elevation

Earthquake Activity

City Distance Mag. Time & Date
Minimum magnitude displayed is 2.5.

Coastal Water Temperatures

Place Temperature

Stations

Nearby Weather Stations

Station Location Temp. Windchill Dew Point Humidity Wind Precip. Elev Updated Type
                   

Watches & Warnings

There are currently no watches in effect.